sensor_id;sensor_type;location;lat;lon;timestamp;P1;durP1;ratioP1;P2;durP2;ratioP2
20209;SDS011;10264;53.178;5.840;2022-09-20T00:01:23;8.70;;;1.77;;
20209;SDS011;10264;53.178;5.840;2022-09-20T00:04:09;7.93;;;1.70;;
20209;SDS011;10264;53.178;5.840;2022-09-20T00:06:38;4.87;;;1.40;;
20209;SDS011;10264;53.178;5.840;2022-09-20T00:09:05;8.23;;;2.37;;
20209;SDS011;10264;53.178;5.840;2022-09-20T00:11:32;3.63;;;1.27;;
20209;SDS011;10264;53.178;5.840;2022-09-20T00:14:00;9.90;;;1.53;;
20209;SDS011;10264;53.178;5.840;2022-09-20T00:16:33;6.20;;;1.50;;
20209;SDS011;10264;53.178;5.840;2022-09-20T00:19:05;6.57;;;1.90;;
20209;SDS011;10264;53.178;5.840;2022-09-20T00:21:34;8.23;;;1.87;;
20209;SDS011;10264;53.178;5.840;2022-09-20T00:24:04;10.03;;;1.40;;
20209;SDS011;10264;53.178;5.840;2022-09-20T00:26:35;5.83;;;1.40;;
20209;SDS011;10264;53.178;5.840;2022-09-20T00:29:02;6.57;;;1.37;;
20209;SDS011;10264;53.178;5.840;2022-09-20T00:31:33;9.53;;;1.63;;
20209;SDS011;10264;53.178;5.840;2022-09-20T00:33:59;9.07;;;2.70;;
20209;SDS011;10264;53.178;5.840;2022-09-20T00:36:26;12.97;;;2.03;;
20209;SDS011;10264;53.178;5.840;2022-09-20T00:38:53;4.83;;;1.70;;
20209;SDS011;10264;53.178;5.840;2022-09-20T00:41:23;6.50;;;1.77;;
20209;SDS011;10264;53.178;5.840;2022-09-20T00:43:50;4.77;;;1.37;;
20209;SDS011;10264;53.178;5.840;2022-09-20T00:46:37;6.27;;;1.80;;
20209;SDS011;10264;53.178;5.840;2022-09-20T00:49:15;9.70;;;2.00;;
20209;SDS011;10264;53.178;5.840;2022-09-20T00:51:49;5.00;;;1.50;;
20209;SDS011;10264;53.178;5.840;2022-09-20T00:54:21;5.07;;;1.40;;
20209;SDS011;10264;53.178;5.840;2022-09-20T00:56:50;10.23;;;2.07;;
20209;SDS011;10264;53.178;5.840;2022-09-20T00:59:21;6.77;;;1.43;;
20209;SDS011;10264;53.178;5.840;2022-09-20T01:01:51;8.20;;;1.70;;
20209;SDS011;10264;53.178;5.840;2022-09-20T01:04:22;5.67;;;1.70;;
20209;SDS011;10264;53.178;5.840;2022-09-20T01:06:52;5.37;;;1.50;;
20209;SDS011;10264;53.178;5.840;2022-09-20T01:09:22;4.53;;;1.23;;
20209;SDS011;10264;53.178;5.840;2022-09-20T01:11:49;5.73;;;1.90;;
20209;SDS011;10264;53.178;5.840;2022-09-20T01:14:18;6.50;;;1.67;;
20209;SDS011;10264;53.178;5.840;2022-09-20T01:16:44;4.93;;;1.37;;
20209;SDS011;10264;53.178;5.840;2022-09-20T01:22:27;4.87;;;1.30;;
20209;SDS011;10264;53.178;5.840;2022-09-20T01:25:14;4.60;;;1.20;;
20209;SDS011;10264;53.178;5.840;2022-09-20T01:27:45;4.93;;;1.20;;
20209;SDS011;10264;53.178;5.840;2022-09-20T01:30:18;4.57;;;1.40;;
20209;SDS011;10264;53.178;5.840;2022-09-20T01:35:34;2.77;;;1.00;;
20209;SDS011;10264;53.178;5.840;2022-09-20T01:46:19;3.30;;;1.33;;
20209;SDS011;10264;53.178;5.840;2022-09-20T01:48:55;4.27;;;1.50;;
20209;SDS011;10264;53.178;5.840;2022-09-20T01:59:54;4.83;;;1.20;;
20209;SDS011;10264;53.178;5.840;2022-09-20T02:05:42;2.97;;;1.10;;
20209;SDS011;10264;53.178;5.840;2022-09-20T02:11:13;2.97;;;1.47;;
20209;SDS011;10264;53.178;5.840;2022-09-20T02:13:47;6.77;;;1.30;;
20209;SDS011;10264;53.178;5.840;2022-09-20T02:22:41;4.67;;;1.03;;
20209;SDS011;10264;53.178;5.840;2022-09-20T02:28:16;2.40;;;1.10;;
20209;SDS011;10264;53.178;5.840;2022-09-20T02:43:02;5.10;;;1.20;;
20209;SDS011;10264;53.178;5.840;2022-09-20T02:45:47;3.63;;;1.33;;
20209;SDS011;10264;53.178;5.840;2022-09-20T02:48:23;5.27;;;1.20;;
20209;SDS011;10264;53.178;5.840;2022-09-20T02:51:35;6.07;;;1.30;;
20209;SDS011;10264;53.178;5.840;2022-09-20T02:56:54;7.00;;;1.50;;
20209;SDS011;10264;53.178;5.840;2022-09-20T02:59:51;5.07;;;1.30;;
20209;SDS011;10264;53.178;5.840;2022-09-20T03:05:00;4.33;;;1.30;;
20209;SDS011;10264;53.178;5.840;2022-09-20T03:10:54;6.23;;;1.40;;
20209;SDS011;10264;53.178;5.840;2022-09-20T03:22:00;4.27;;;1.30;;
20209;SDS011;10264;53.178;5.840;2022-09-20T03:24:52;5.00;;;1.70;;
20209;SDS011;10264;53.178;5.840;2022-09-20T03:30:40;4.00;;;1.40;;
20209;SDS011;10264;53.178;5.840;2022-09-20T03:50:41;3.67;;;2.00;;
20209;SDS011;10264;53.178;5.840;2022-09-20T03:53:16;4.60;;;2.00;;
20209;SDS011;10264;53.178;5.840;2022-09-20T03:56:21;3.37;;;1.20;;
20209;SDS011;10264;53.178;5.840;2022-09-20T04:05:04;4.23;;;1.50;;
20209;SDS011;10264;53.178;5.840;2022-09-20T04:13:34;4.73;;;1.53;;
20209;SDS011;10264;53.178;5.840;2022-09-20T04:16:04;5.53;;;1.77;;
20209;SDS011;10264;53.178;5.840;2022-09-20T04:18:42;6.40;;;1.63;;
20209;SDS011;10264;53.178;5.840;2022-09-20T04:26:58;8.03;;;2.10;;
20209;SDS011;10264;53.178;5.840;2022-09-20T04:32:24;6.80;;;1.90;;
20209;SDS011;10264;53.178;5.840;2022-09-20T04:37:55;6.90;;;1.73;;
20209;SDS011;10264;53.178;5.840;2022-09-20T04:40:32;6.00;;;1.70;;
20209;SDS011;10264;53.178;5.840;2022-09-20T05:00:17;5.57;;;2.00;;
20209;SDS011;10264;53.178;5.840;2022-09-20T05:19:27;5.23;;;1.60;;
20209;SDS011;10264;53.178;5.840;2022-09-20T05:27:45;6.13;;;1.73;;
20209;SDS011;10264;53.178;5.840;2022-09-20T05:30:40;8.13;;;1.93;;
20209;SDS011;10264;53.178;5.840;2022-09-20T05:38:41;5.73;;;1.63;;
20209;SDS011;10264;53.178;5.840;2022-09-20T05:44:35;8.17;;;1.70;;
20209;SDS011;10264;53.178;5.840;2022-09-20T05:55:50;6.63;;;2.33;;
20209;SDS011;10264;53.178;5.840;2022-09-20T06:01:24;6.30;;;1.90;;
20209;SDS011;10264;53.178;5.840;2022-09-20T06:04:00;5.63;;;1.90;;
20209;SDS011;10264;53.178;5.840;2022-09-20T06:06:29;9.40;;;2.13;;
20209;SDS011;10264;53.178;5.840;2022-09-20T06:14:54;9.57;;;2.13;;
20209;SDS011;10264;53.178;5.840;2022-09-20T06:17:27;5.27;;;1.70;;
20209;SDS011;10264;53.178;5.840;2022-09-20T06:22:53;5.67;;;1.60;;
20209;SDS011;10264;53.178;5.840;2022-09-20T06:25:23;8.93;;;1.57;;
20209;SDS011;10264;53.178;5.840;2022-09-20T06:31:00;7.13;;;1.87;;
20209;SDS011;10264;53.178;5.840;2022-09-20T06:33:26;7.77;;;1.67;;
20209;SDS011;10264;53.178;5.840;2022-09-20T06:36:07;4.83;;;1.60;;
20209;SDS011;10264;53.178;5.840;2022-09-20T06:39:05;6.57;;;1.40;;
20209;SDS011;10264;53.178;5.840;2022-09-20T06:41:36;3.87;;;1.80;;
20209;SDS011;10264;53.178;5.840;2022-09-20T06:44:02;5.43;;;1.80;;
20209;SDS011;10264;53.178;5.840;2022-09-20T06:46:30;7.53;;;2.20;;
20209;SDS011;10264;53.178;5.840;2022-09-20T06:48:58;5.43;;;1.83;;
20209;SDS011;10264;53.178;5.840;2022-09-20T06:51:26;7.13;;;2.33;;
20209;SDS011;10264;53.178;5.840;2022-09-20T06:53:58;7.40;;;1.77;;
20209;SDS011;10264;53.178;5.840;2022-09-20T06:56:28;5.47;;;1.37;;
20209;SDS011;10264;53.178;5.840;2022-09-20T06:58:58;10.20;;;1.70;;
20209;SDS011;10264;53.178;5.840;2022-09-20T07:01:25;5.57;;;1.53;;
20209;SDS011;10264;53.178;5.840;2022-09-20T07:03:56;6.07;;;1.60;;
20209;SDS011;10264;53.178;5.840;2022-09-20T07:06:27;5.93;;;1.53;;
20209;SDS011;10264;53.178;5.840;2022-09-20T07:08:56;3.53;;;1.73;;
20209;SDS011;10264;53.178;5.840;2022-09-20T07:11:22;6.63;;;2.30;;
20209;SDS011;10264;53.178;5.840;2022-09-20T07:13:53;6.03;;;1.60;;
20209;SDS011;10264;53.178;5.840;2022-09-20T07:16:22;6.13;;;1.63;;
20209;SDS011;10264;53.178;5.840;2022-09-20T07:18:49;8.30;;;1.80;;
20209;SDS011;10264;53.178;5.840;2022-09-20T07:21:17;6.63;;;1.80;;
20209;SDS011;10264;53.178;5.840;2022-09-20T07:23:46;6.50;;;1.73;;
20209;SDS011;10264;53.178;5.840;2022-09-20T07:28:42;5.63;;;1.70;;
20209;SDS011;10264;53.178;5.840;2022-09-20T07:31:08;3.50;;;1.47;;
20209;SDS011;10264;53.178;5.840;2022-09-20T07:33:35;6.50;;;1.70;;
20209;SDS011;10264;53.178;5.840;2022-09-20T07:36:01;6.60;;;2.00;;
20209;SDS011;10264;53.178;5.840;2022-09-20T07:38:28;3.37;;;1.57;;
20209;SDS011;10264;53.178;5.840;2022-09-20T07:40:55;6.60;;;1.60;;
20209;SDS011;10264;53.178;5.840;2022-09-20T07:43:25;6.50;;;1.80;;
20209;SDS011;10264;53.178;5.840;2022-09-20T07:45:53;5.00;;;1.73;;
20209;SDS011;10264;53.178;5.840;2022-09-20T07:48:21;4.93;;;1.80;;
20209;SDS011;10264;53.178;5.840;2022-09-20T07:50:49;5.77;;;1.40;;
20209;SDS011;10264;53.178;5.840;2022-09-20T07:53:19;5.40;;;1.10;;
20209;SDS011;10264;53.178;5.840;2022-09-20T07:55:59;5.33;;;1.57;;
20209;SDS011;10264;53.178;5.840;2022-09-20T07:58:29;6.30;;;1.87;;
20209;SDS011;10264;53.178;5.840;2022-09-20T08:00:58;3.43;;;1.30;;
20209;SDS011;10264;53.178;5.840;2022-09-20T08:03:28;6.83;;;1.47;;
20209;SDS011;10264;53.178;5.840;2022-09-20T08:06:02;6.13;;;1.30;;
20209;SDS011;10264;53.178;5.840;2022-09-20T08:08:31;3.83;;;1.40;;
20209;SDS011;10264;53.178;5.840;2022-09-20T08:11:02;3.83;;;1.93;;
20209;SDS011;10264;53.178;5.840;2022-09-20T08:13:34;8.80;;;2.00;;
20209;SDS011;10264;53.178;5.840;2022-09-20T08:16:24;4.53;;;1.60;;
20209;SDS011;10264;53.178;5.840;2022-09-20T08:18:54;3.40;;;1.27;;
20209;SDS011;10264;53.178;5.840;2022-09-20T08:21:22;3.20;;;1.50;;
20209;SDS011;10264;53.178;5.840;2022-09-20T08:23:50;6.97;;;1.47;;
20209;SDS011;10264;53.178;5.840;2022-09-20T08:26:18;6.00;;;1.43;;
20209;SDS011;10264;53.178;5.840;2022-09-20T08:28:49;7.80;;;1.50;;
20209;SDS011;10264;53.178;5.840;2022-09-20T08:31:18;6.00;;;1.30;;
20209;SDS011;10264;53.178;5.840;2022-09-20T08:33:46;9.50;;;1.73;;
20209;SDS011;10264;53.178;5.840;2022-09-20T08:36:15;6.17;;;1.70;;
20209;SDS011;10264;53.178;5.840;2022-09-20T08:38:43;6.63;;;1.73;;
20209;SDS011;10264;53.178;5.840;2022-09-20T08:41:33;5.20;;;1.50;;
20209;SDS011;10264;53.178;5.840;2022-09-20T08:44:13;3.73;;;1.47;;
20209;SDS011;10264;53.178;5.840;2022-09-20T08:49:34;4.63;;;1.40;;
20209;SDS011;10264;53.178;5.840;2022-09-20T08:52:02;6.47;;;1.93;;
20209;SDS011;10264;53.178;5.840;2022-09-20T08:54:35;6.63;;;1.67;;
20209;SDS011;10264;53.178;5.840;2022-09-20T08:57:03;6.13;;;1.57;;
20209;SDS011;10264;53.178;5.840;2022-09-20T08:59:36;4.37;;;1.27;;
20209;SDS011;10264;53.178;5.840;2022-09-20T09:02:08;5.43;;;1.57;;
20209;SDS011;10264;53.178;5.840;2022-09-20T09:04:40;6.20;;;1.57;;
20209;SDS011;10264;53.178;5.840;2022-09-20T09:07:08;3.90;;;1.53;;
20209;SDS011;10264;53.178;5.840;2022-09-20T09:09:37;6.40;;;1.67;;
20209;SDS011;10264;53.178;5.840;2022-09-20T09:12:13;5.77;;;1.50;;
20209;SDS011;10264;53.178;5.840;2022-09-20T09:14:44;8.70;;;2.47;;
20209;SDS011;10264;53.178;5.840;2022-09-20T09:17:11;3.13;;;1.37;;
20209;SDS011;10264;53.178;5.840;2022-09-20T09:19:43;5.27;;;1.40;;
20209;SDS011;10264;53.178;5.840;2022-09-20T09:22:46;4.20;;;1.40;;
20209;SDS011;10264;53.178;5.840;2022-09-20T09:25:30;3.00;;;1.10;;
20209;SDS011;10264;53.178;5.840;2022-09-20T09:30:45;2.30;;;1.03;;
20209;SDS011;10264;53.178;5.840;2022-09-20T09:35:58;5.63;;;1.27;;
20209;SDS011;10264;53.178;5.840;2022-09-20T09:38:29;4.33;;;1.00;;
20209;SDS011;10264;53.178;5.840;2022-09-20T09:40:59;3.93;;;1.30;;
20209;SDS011;10264;53.178;5.840;2022-09-20T09:43:28;6.77;;;1.60;;
20209;SDS011;10264;53.178;5.840;2022-09-20T09:46:14;3.97;;;1.10;;
20209;SDS011;10264;53.178;5.840;2022-09-20T09:48:46;4.43;;;1.33;;
20209;SDS011;10264;53.178;5.840;2022-09-20T09:51:15;2.10;;;1.20;;
20209;SDS011;10264;53.178;5.840;2022-09-20T09:53:44;3.80;;;1.10;;
20209;SDS011;10264;53.178;5.840;2022-09-20T10:04:37;4.80;;;1.00;;
20209;SDS011;10264;53.178;5.840;2022-09-20T10:07:36;4.03;;;1.13;;
20209;SDS011;10264;53.178;5.840;2022-09-20T10:24:03;4.90;;;1.30;;
20209;SDS011;10264;53.178;5.840;2022-09-20T10:32:15;4.70;;;1.47;;
20209;SDS011;10264;53.178;5.840;2022-09-20T10:37:24;3.90;;;1.17;;
20209;SDS011;10264;53.178;5.840;2022-09-20T10:40:09;5.20;;;1.20;;
20209;SDS011;10264;53.178;5.840;2022-09-20T10:42:52;1.93;;;1.03;;
20209;SDS011;10264;53.178;5.840;2022-09-20T10:48:52;5.63;;;1.67;;
20209;SDS011;10264;53.178;5.840;2022-09-20T10:56:50;8.43;;;1.80;;
20209;SDS011;10264;53.178;5.840;2022-09-20T11:05:07;5.70;;;1.20;;
20209;SDS011;10264;53.178;5.840;2022-09-20T11:18:35;6.27;;;1.37;;
20209;SDS011;10264;53.178;5.840;2022-09-20T11:21:12;4.03;;;1.20;;
20209;SDS011;10264;53.178;5.840;2022-09-20T11:23:43;5.90;;;1.70;;
20209;SDS011;10264;53.178;5.840;2022-09-20T11:26:23;6.80;;;1.63;;
20209;SDS011;10264;53.178;5.840;2022-09-20T11:28:58;4.87;;;1.20;;
20209;SDS011;10264;53.178;5.840;2022-09-20T11:31:45;5.80;;;1.40;;
20209;SDS011;10264;53.178;5.840;2022-09-20T11:34:23;7.80;;;1.50;;
20209;SDS011;10264;53.178;5.840;2022-09-20T11:36:54;4.87;;;1.47;;
20209;SDS011;10264;53.178;5.840;2022-09-20T11:39:38;5.30;;;1.30;;
20209;SDS011;10264;53.178;5.840;2022-09-20T11:42:10;4.20;;;1.47;;
20209;SDS011;10264;53.178;5.840;2022-09-20T11:44:41;6.17;;;1.43;;
20209;SDS011;10264;53.178;5.840;2022-09-20T11:47:13;3.47;;;1.90;;
20209;SDS011;10264;53.178;5.840;2022-09-20T11:52:58;5.40;;;1.43;;
20209;SDS011;10264;53.178;5.840;2022-09-20T11:58:14;3.93;;;1.37;;
20209;SDS011;10264;53.178;5.840;2022-09-20T12:00:43;3.77;;;1.10;;
20209;SDS011;10264;53.178;5.840;2022-09-20T12:08:32;3.67;;;1.13;;
20209;SDS011;10264;53.178;5.840;2022-09-20T12:13:35;3.23;;;1.00;;
20209;SDS011;10264;53.178;5.840;2022-09-20T12:21:26;5.30;;;1.50;;
20209;SDS011;10264;53.178;5.840;2022-09-20T12:28:53;5.10;;;1.47;;
20209;SDS011;10264;53.178;5.840;2022-09-20T12:31:36;4.30;;;1.13;;
20209;SDS011;10264;53.178;5.840;2022-09-20T12:34:13;4.87;;;0.93;;
20209;SDS011;10264;53.178;5.840;2022-09-20T12:39:16;4.73;;;1.20;;
20209;SDS011;10264;53.178;5.840;2022-09-20T12:41:55;2.73;;;1.40;;
20209;SDS011;10264;53.178;5.840;2022-09-20T12:44:37;1.80;;;1.07;;
20209;SDS011;10264;53.178;5.840;2022-09-20T12:49:40;6.83;;;1.27;;
20209;SDS011;10264;53.178;5.840;2022-09-20T12:52:21;5.87;;;1.50;;
20209;SDS011;10264;53.178;5.840;2022-09-20T12:54:52;3.43;;;1.20;;
20209;SDS011;10264;53.178;5.840;2022-09-20T12:57:29;3.57;;;1.23;;
20209;SDS011;10264;53.178;5.840;2022-09-20T13:00:26;1.23;;;0.90;;
20209;SDS011;10264;53.178;5.840;2022-09-20T13:05:46;2.70;;;0.90;;
20209;SDS011;10264;53.178;5.840;2022-09-20T13:08:23;3.57;;;1.17;;
20209;SDS011;10264;53.178;5.840;2022-09-20T13:22:11;4.20;;;1.37;;
20209;SDS011;10264;53.178;5.840;2022-09-20T13:24:43;2.67;;;1.20;;
20209;SDS011;10264;53.178;5.840;2022-09-20T13:27:22;2.33;;;1.20;;
20209;SDS011;10264;53.178;5.840;2022-09-20T13:29:52;3.83;;;1.00;;
20209;SDS011;10264;53.178;5.840;2022-09-20T13:32:29;3.70;;;1.40;;
20209;SDS011;10264;53.178;5.840;2022-09-20T13:37:37;5.00;;;1.10;;
20209;SDS011;10264;53.178;5.840;2022-09-20T13:40:14;3.87;;;1.13;;
20209;SDS011;10264;53.178;5.840;2022-09-20T13:43:15;6.47;;;1.73;;
20209;SDS011;10264;53.178;5.840;2022-09-20T13:46:08;5.07;;;1.33;;
20209;SDS011;10264;53.178;5.840;2022-09-20T13:48:45;6.07;;;1.40;;
20209;SDS011;10264;53.178;5.840;2022-09-20T13:51:25;2.80;;;1.20;;
20209;SDS011;10264;53.178;5.840;2022-09-20T13:56:56;8.20;;;1.77;;
20209;SDS011;10264;53.178;5.840;2022-09-20T13:59:35;3.60;;;1.40;;
20209;SDS011;10264;53.178;5.840;2022-09-20T14:02:25;3.87;;;1.30;;
20209;SDS011;10264;53.178;5.840;2022-09-20T14:04:59;3.10;;;1.10;;
20209;SDS011;10264;53.178;5.840;2022-09-20T14:07:36;8.03;;;1.50;;
20209;SDS011;10264;53.178;5.840;2022-09-20T14:13:13;3.43;;;1.20;;
20209;SDS011;10264;53.178;5.840;2022-09-20T14:15:50;5.63;;;1.27;;
20209;SDS011;10264;53.178;5.840;2022-09-20T14:18:45;3.63;;;1.13;;
20209;SDS011;10264;53.178;5.840;2022-09-20T14:21:21;4.00;;;1.30;;
20209;SDS011;10264;53.178;5.840;2022-09-20T14:23:51;5.47;;;1.33;;
20209;SDS011;10264;53.178;5.840;2022-09-20T14:26:40;8.03;;;1.40;;
20209;SDS011;10264;53.178;5.840;2022-09-20T14:31:59;3.23;;;1.73;;
20209;SDS011;10264;53.178;5.840;2022-09-20T14:34:36;7.43;;;1.43;;
20209;SDS011;10264;53.178;5.840;2022-09-20T14:37:12;2.20;;;0.93;;
20209;SDS011;10264;53.178;5.840;2022-09-20T14:39:53;2.67;;;1.10;;
20209;SDS011;10264;53.178;5.840;2022-09-20T14:42:24;5.77;;;1.33;;
20209;SDS011;10264;53.178;5.840;2022-09-20T14:44:55;5.90;;;1.20;;
20209;SDS011;10264;53.178;5.840;2022-09-20T14:47:28;3.40;;;1.40;;
20209;SDS011;10264;53.178;5.840;2022-09-20T14:50:17;2.73;;;1.20;;
20209;SDS011;10264;53.178;5.840;2022-09-20T14:55:53;3.60;;;1.20;;
20209;SDS011;10264;53.178;5.840;2022-09-20T14:58:22;5.57;;;1.13;;
20209;SDS011;10264;53.178;5.840;2022-09-20T15:03:53;1.80;;;1.07;;
20209;SDS011;10264;53.178;5.840;2022-09-20T15:07:00;2.90;;;1.00;;
20209;SDS011;10264;53.178;5.840;2022-09-20T15:09:33;2.37;;;1.00;;
20209;SDS011;10264;53.178;5.840;2022-09-20T15:12:21;2.17;;;1.03;;
20209;SDS011;10264;53.178;5.840;2022-09-20T15:14:53;3.00;;;1.07;;
20209;SDS011;10264;53.178;5.840;2022-09-20T15:17:26;4.40;;;1.00;;
20209;SDS011;10264;53.178;5.840;2022-09-20T15:19:56;4.53;;;1.20;;
20209;SDS011;10264;53.178;5.840;2022-09-20T15:22:28;4.33;;;1.30;;
20209;SDS011;10264;53.178;5.840;2022-09-20T15:24:59;3.97;;;1.07;;
20209;SDS011;10264;53.178;5.840;2022-09-20T15:27:39;6.33;;;1.70;;
20209;SDS011;10264;53.178;5.840;2022-09-20T15:32:56;5.03;;;1.20;;
20209;SDS011;10264;53.178;5.840;2022-09-20T15:35:52;3.27;;;1.10;;
20209;SDS011;10264;53.178;5.840;2022-09-20T15:38:21;5.03;;;1.30;;
20209;SDS011;10264;53.178;5.840;2022-09-20T15:40:50;2.83;;;0.90;;
20209;SDS011;10264;53.178;5.840;2022-09-20T15:43:18;5.97;;;0.83;;
20209;SDS011;10264;53.178;5.840;2022-09-20T15:45:53;9.37;;;2.93;;
20209;SDS011;10264;53.178;5.840;2022-09-20T15:48:25;5.83;;;1.30;;
20209;SDS011;10264;53.178;5.840;2022-09-20T15:50:58;1.93;;;0.90;;
20209;SDS011;10264;53.178;5.840;2022-09-20T15:53:39;4.47;;;1.57;;
20209;SDS011;10264;53.178;5.840;2022-09-20T15:58:49;2.27;;;1.20;;
20209;SDS011;10264;53.178;5.840;2022-09-20T16:01:21;5.90;;;1.50;;
20209;SDS011;10264;53.178;5.840;2022-09-20T16:03:48;4.97;;;1.67;;
20209;SDS011;10264;53.178;5.840;2022-09-20T16:06:19;5.50;;;1.90;;
20209;SDS011;10264;53.178;5.840;2022-09-20T16:08:51;2.90;;;1.10;;
20209;SDS011;10264;53.178;5.840;2022-09-20T16:11:20;3.97;;;1.23;;
20209;SDS011;10264;53.178;5.840;2022-09-20T16:13:53;4.77;;;1.10;;
20209;SDS011;10264;53.178;5.840;2022-09-20T16:16:27;3.00;;;1.63;;
20209;SDS011;10264;53.178;5.840;2022-09-20T16:19:19;4.43;;;1.30;;
20209;SDS011;10264;53.178;5.840;2022-09-20T16:22:11;3.00;;;0.80;;
20209;SDS011;10264;53.178;5.840;2022-09-20T16:25:04;2.60;;;1.00;;
20209;SDS011;10264;53.178;5.840;2022-09-20T16:27:42;2.33;;;0.90;;
20209;SDS011;10264;53.178;5.840;2022-09-20T16:30:11;4.20;;;1.70;;
20209;SDS011;10264;53.178;5.840;2022-09-20T16:33:19;3.07;;;1.20;;
20209;SDS011;10264;53.178;5.840;2022-09-20T16:35:48;1.80;;;1.00;;
20209;SDS011;10264;53.178;5.840;2022-09-20T16:38:16;6.37;;;1.20;;
20209;SDS011;10264;53.178;5.840;2022-09-20T16:40:46;1.23;;;0.77;;
20209;SDS011;10264;53.178;5.840;2022-09-20T16:43:16;3.77;;;1.10;;
20209;SDS011;10264;53.178;5.840;2022-09-20T16:45:43;2.37;;;1.07;;
20209;SDS011;10264;53.178;5.840;2022-09-20T16:48:20;5.77;;;1.20;;
20209;SDS011;10264;53.178;5.840;2022-09-20T16:50:52;3.27;;;0.90;;
20209;SDS011;10264;53.178;5.840;2022-09-20T16:53:19;2.87;;;1.10;;
20209;SDS011;10264;53.178;5.840;2022-09-20T16:55:48;4.80;;;1.20;;
20209;SDS011;10264;53.178;5.840;2022-09-20T16:58:15;4.43;;;1.10;;
20209;SDS011;10264;53.178;5.840;2022-09-20T17:00:42;6.33;;;1.00;;
20209;SDS011;10264;53.178;5.840;2022-09-20T17:03:11;1.90;;;0.93;;
20209;SDS011;10264;53.178;5.840;2022-09-20T17:05:38;4.30;;;1.30;;
20209;SDS011;10264;53.178;5.840;2022-09-20T17:08:07;2.27;;;0.90;;
20209;SDS011;10264;53.178;5.840;2022-09-20T17:10:36;5.73;;;1.40;;
20209;SDS011;10264;53.178;5.840;2022-09-20T17:13:05;3.73;;;1.13;;
20209;SDS011;10264;53.178;5.840;2022-09-20T17:15:32;4.33;;;1.30;;
20209;SDS011;10264;53.178;5.840;2022-09-20T17:18:02;3.47;;;1.20;;
20209;SDS011;10264;53.178;5.840;2022-09-20T17:20:32;5.87;;;1.40;;
20209;SDS011;10264;53.178;5.840;2022-09-20T17:23:06;5.07;;;1.20;;
20209;SDS011;10264;53.178;5.840;2022-09-20T17:25:34;3.43;;;1.43;;
20209;SDS011;10264;53.178;5.840;2022-09-20T17:28:03;3.53;;;1.20;;
20209;SDS011;10264;53.178;5.840;2022-09-20T17:30:33;2.67;;;1.30;;
20209;SDS011;10264;53.178;5.840;2022-09-20T17:32:59;5.73;;;2.13;;
20209;SDS011;10264;53.178;5.840;2022-09-20T17:35:27;5.67;;;1.47;;
20209;SDS011;10264;53.178;5.840;2022-09-20T17:37:56;3.37;;;1.30;;
20209;SDS011;10264;53.178;5.840;2022-09-20T17:40:22;2.43;;;0.97;;
20209;SDS011;10264;53.178;5.840;2022-09-20T17:42:51;4.57;;;1.40;;
20209;SDS011;10264;53.178;5.840;2022-09-20T17:45:17;5.30;;;1.10;;
20209;SDS011;10264;53.178;5.840;2022-09-20T17:47:49;5.77;;;1.43;;
20209;SDS011;10264;53.178;5.840;2022-09-20T17:50:15;5.13;;;1.40;;
20209;SDS011;10264;53.178;5.840;2022-09-20T17:52:44;4.20;;;1.27;;
20209;SDS011;10264;53.178;5.840;2022-09-20T17:55:10;6.93;;;1.60;;
20209;SDS011;10264;53.178;5.840;2022-09-20T17:57:38;5.40;;;1.10;;
20209;SDS011;10264;53.178;5.840;2022-09-20T18:00:09;4.00;;;1.30;;
20209;SDS011;10264;53.178;5.840;2022-09-20T18:02:40;4.83;;;1.27;;
20209;SDS011;10264;53.178;5.840;2022-09-20T18:05:07;3.17;;;1.10;;
20209;SDS011;10264;53.178;5.840;2022-09-20T18:07:38;4.10;;;1.77;;
20209;SDS011;10264;53.178;5.840;2022-09-20T18:10:05;5.17;;;1.30;;
20209;SDS011;10264;53.178;5.840;2022-09-20T18:12:36;3.07;;;1.50;;
20209;SDS011;10264;53.178;5.840;2022-09-20T18:15:11;3.40;;;1.10;;
20209;SDS011;10264;53.178;5.840;2022-09-20T18:17:39;2.57;;;1.20;;
20209;SDS011;10264;53.178;5.840;2022-09-20T18:20:08;3.90;;;1.20;;
20209;SDS011;10264;53.178;5.840;2022-09-20T18:22:36;4.40;;;1.23;;
20209;SDS011;10264;53.178;5.840;2022-09-20T18:25:04;2.80;;;1.20;;
20209;SDS011;10264;53.178;5.840;2022-09-20T18:27:36;3.87;;;1.50;;
20209;SDS011;10264;53.178;5.840;2022-09-20T18:30:02;5.77;;;2.13;;
20209;SDS011;10264;53.178;5.840;2022-09-20T18:32:32;3.63;;;1.03;;
20209;SDS011;10264;53.178;5.840;2022-09-20T18:34:59;7.83;;;1.60;;
20209;SDS011;10264;53.178;5.840;2022-09-20T18:37:29;4.33;;;1.23;;
20209;SDS011;10264;53.178;5.840;2022-09-20T18:40:02;3.63;;;1.60;;
20209;SDS011;10264;53.178;5.840;2022-09-20T18:42:29;5.30;;;1.37;;
20209;SDS011;10264;53.178;5.840;2022-09-20T18:45:11;3.40;;;1.23;;
20209;SDS011;10264;53.178;5.840;2022-09-20T18:47:41;4.07;;;1.27;;
20209;SDS011;10264;53.178;5.840;2022-09-20T18:50:08;3.90;;;1.37;;
20209;SDS011;10264;53.178;5.840;2022-09-20T18:52:34;6.77;;;1.43;;
20209;SDS011;10264;53.178;5.840;2022-09-20T18:55:03;5.23;;;1.30;;
20209;SDS011;10264;53.178;5.840;2022-09-20T18:57:43;6.10;;;1.30;;
20209;SDS011;10264;53.178;5.840;2022-09-20T19:00:17;2.83;;;1.43;;
20209;SDS011;10264;53.178;5.840;2022-09-20T19:02:54;4.13;;;1.43;;
20209;SDS011;10264;53.178;5.840;2022-09-20T19:06:09;2.97;;;1.37;;
20209;SDS011;10264;53.178;5.840;2022-09-20T19:08:31;4.20;;;1.50;;
20209;SDS011;10264;53.178;5.840;2022-09-20T19:11:08;3.90;;;1.73;;
20209;SDS011;10264;53.178;5.840;2022-09-20T19:13:45;2.83;;;1.20;;
20209;SDS011;10264;53.178;5.840;2022-09-20T19:16:23;3.60;;;1.80;;
20209;SDS011;10264;53.178;5.840;2022-09-20T19:19:06;4.87;;;1.30;;
20209;SDS011;10264;53.178;5.840;2022-09-20T19:24:45;7.33;;;1.80;;
20209;SDS011;10264;53.178;5.840;2022-09-20T19:27:13;4.20;;;1.80;;
20209;SDS011;10264;53.178;5.840;2022-09-20T19:29:40;7.00;;;2.03;;
20209;SDS011;10264;53.178;5.840;2022-09-20T19:32:10;6.47;;;1.70;;
20209;SDS011;10264;53.178;5.840;2022-09-20T19:34:42;4.40;;;1.87;;
20209;SDS011;10264;53.178;5.840;2022-09-20T19:37:16;7.07;;;2.63;;
20209;SDS011;10264;53.178;5.840;2022-09-20T19:48:20;4.50;;;1.70;;
20209;SDS011;10264;53.178;5.840;2022-09-20T19:50:58;2.57;;;2.10;;
20209;SDS011;10264;53.178;5.840;2022-09-20T19:53:33;9.50;;;2.10;;
20209;SDS011;10264;53.178;5.840;2022-09-20T19:58:43;2.83;;;1.80;;
20209;SDS011;10264;53.178;5.840;2022-09-20T20:01:14;4.37;;;2.17;;
20209;SDS011;10264;53.178;5.840;2022-09-20T20:03:43;7.13;;;1.93;;
20209;SDS011;10264;53.178;5.840;2022-09-20T20:06:29;4.20;;;2.30;;
20209;SDS011;10264;53.178;5.840;2022-09-20T20:12:33;12.70;;;6.43;;
20209;SDS011;10264;53.178;5.840;2022-09-20T20:15:17;26.43;;;11.63;;
20209;SDS011;10264;53.178;5.840;2022-09-20T20:20:43;40.23;;;18.47;;
20209;SDS011;10264;53.178;5.840;2022-09-20T20:26:22;33.10;;;15.97;;
20209;SDS011;10264;53.178;5.840;2022-09-20T20:28:50;27.40;;;15.57;;
20209;SDS011;10264;53.178;5.840;2022-09-20T20:31:18;31.37;;;20.20;;
20209;SDS011;10264;53.178;5.840;2022-09-20T20:33:48;26.47;;;18.17;;
20209;SDS011;10264;53.178;5.840;2022-09-20T20:36:17;21.17;;;13.67;;
20209;SDS011;10264;53.178;5.840;2022-09-20T20:38:43;16.30;;;10.43;;
20209;SDS011;10264;53.178;5.840;2022-09-20T20:41:10;12.45;;;6.15;;
20209;SDS011;10264;53.178;5.840;2022-09-20T20:43:39;12.87;;;5.60;;
20209;SDS011;10264;53.178;5.840;2022-09-20T20:46:08;10.70;;;5.67;;
20209;SDS011;10264;53.178;5.840;2022-09-20T20:48:37;8.10;;;4.43;;
20209;SDS011;10264;53.178;5.840;2022-09-20T20:51:07;6.50;;;3.37;;
20209;SDS011;10264;53.178;5.840;2022-09-20T20:53:42;12.63;;;3.90;;
20209;SDS011;10264;53.178;5.840;2022-09-20T20:56:14;7.30;;;4.50;;
20209;SDS011;10264;53.178;5.840;2022-09-20T20:58:43;10.87;;;4.70;;
20209;SDS011;10264;53.178;5.840;2022-09-20T21:01:14;10.10;;;4.73;;
20209;SDS011;10264;53.178;5.840;2022-09-20T21:03:50;5.90;;;4.20;;